createdAt,value
2022-08-14T00:02:27.148Z,4.93
2022-08-14T00:04:55.310Z,6.10
2022-08-14T00:07:23.343Z,5.28
2022-08-14T00:09:56.148Z,4.95
2022-08-14T00:12:41.615Z,4.43
2022-08-14T00:15:17.748Z,4.53
2022-08-14T00:17:48.072Z,5.65
2022-08-14T00:20:30.140Z,4.60
2022-08-14T00:23:12.198Z,4.65
2022-08-14T00:25:53.801Z,6.05
2022-08-14T00:28:37.228Z,4.85
2022-08-14T00:31:07.809Z,5.07
2022-08-14T00:33:51.109Z,4.40
2022-08-14T00:36:35.715Z,4.72
2022-08-14T00:39:09.487Z,4.47
2022-08-14T00:41:39.145Z,4.70
2022-08-14T00:44:08.197Z,5.20
2022-08-14T00:46:37.977Z,4.93
2022-08-14T00:49:11.606Z,4.90
2022-08-14T00:51:44.136Z,5.00
2022-08-14T00:54:22.096Z,4.72
2022-08-14T00:56:55.401Z,5.50
2022-08-14T00:59:28.413Z,5.78
2022-08-14T01:01:59.730Z,5.07
2022-08-14T01:04:52.411Z,5.30
2022-08-14T01:07:20.872Z,4.88
2022-08-14T01:09:57.224Z,3.67
2022-08-14T01:12:29.521Z,4.43
2022-08-14T01:14:59.608Z,4.10
2022-08-14T01:17:52.313Z,4.13
2022-08-14T01:20:40.661Z,4.32
2022-08-14T01:23:15.577Z,4.28
2022-08-14T01:25:44.141Z,4.28
2022-08-14T01:28:46.162Z,4.47
2022-08-14T01:31:02.060Z,4.07
2022-08-14T01:34:00.218Z,3.80
2022-08-14T01:36:23.211Z,5.10
2022-08-14T01:38:56.585Z,3.95
2022-08-14T01:41:29.950Z,4.45
2022-08-14T01:44:02.272Z,5.40
2022-08-14T01:46:36.760Z,4.10
2022-08-14T01:49:09.842Z,4.10
2022-08-14T01:51:39.373Z,4.10
2022-08-14T01:54:14.417Z,4.47
2022-08-14T01:56:44.607Z,4.13
2022-08-14T01:59:21.090Z,4.35
2022-08-14T02:01:58.495Z,6.45
2022-08-14T02:04:55.872Z,4.25
2022-08-14T02:07:34.446Z,4.40
2022-08-14T02:10:13.122Z,4.53
2022-08-14T02:12:53.928Z,4.25
2022-08-14T02:15:22.775Z,4.05
2022-08-14T02:17:50.642Z,4.15
2022-08-14T02:20:23.473Z,5.10
2022-08-14T02:22:54.730Z,5.38
2022-08-14T02:25:23.561Z,4.18
2022-08-14T02:28:22.426Z,4.32
2022-08-14T02:30:39.969Z,5.10
2022-08-14T02:33:07.906Z,4.25
2022-08-14T02:35:42.286Z,4.63
2022-08-14T02:38:11.557Z,4.72
2022-08-14T02:40:40.456Z,5.00
2022-08-14T02:43:08.688Z,4.68
2022-08-14T02:45:44.376Z,5.43
2022-08-14T02:49:03.350Z,4.07
2022-08-14T02:51:09.193Z,4.28
2022-08-14T02:53:44.185Z,4.97
2022-08-14T02:56:29.993Z,4.72
2022-08-14T02:59:05.496Z,5.57
2022-08-14T03:01:43.796Z,4.30
2022-08-14T03:04:20.581Z,4.47
2022-08-14T03:06:57.888Z,4.38
2022-08-14T03:10:25.104Z,4.43
2022-08-14T03:12:30.864Z,4.80
2022-08-14T03:15:09.044Z,5.22
2022-08-14T03:17:57.181Z,4.90
2022-08-14T03:20:30.137Z,4.63
2022-08-14T03:22:59.470Z,4.68
2022-08-14T03:25:34.289Z,4.82
2022-08-14T03:28:07.042Z,6.15
2022-08-14T03:30:41.052Z,4.85
2022-08-14T03:33:11.351Z,5.38
2022-08-14T03:36:00.383Z,5.75
2022-08-14T03:39:10.558Z,5.57
2022-08-14T03:41:23.233Z,5.72
2022-08-14T03:45:18.683Z,5.00
2022-08-14T03:46:54.521Z,8.55
2022-08-14T03:49:28.514Z,6.40
2022-08-14T03:52:17.762Z,6.63
2022-08-14T03:54:53.439Z,7.22
2022-08-14T03:57:22.789Z,6.50
2022-08-14T03:59:51.630Z,6.97
2022-08-14T04:02:37.062Z,7.07
2022-08-14T04:05:12.277Z,6.70
2022-08-14T04:08:00.511Z,6.65
2022-08-14T04:10:31.963Z,7.10
2022-08-14T04:13:05.927Z,8.20
2022-08-14T04:15:56.720Z,6.78
2022-08-14T04:18:22.247Z,6.78
2022-08-14T04:20:54.457Z,7.75
2022-08-14T04:23:29.910Z,7.43
2022-08-14T04:26:02.186Z,7.90
2022-08-14T04:29:01.628Z,7.90
2022-08-14T04:31:24.891Z,7.07
2022-08-14T04:34:11.910Z,6.88
2022-08-14T04:37:07.911Z,6.75
2022-08-14T04:39:57.043Z,6.38
2022-08-14T04:42:47.138Z,6.90
2022-08-14T04:45:21.929Z,7.00
2022-08-14T04:48:12.480Z,6.82
2022-08-14T04:50:49.077Z,6.93
2022-08-14T04:53:26.252Z,7.63
2022-08-14T04:55:54.342Z,6.72
2022-08-14T04:58:32.240Z,7.38
2022-08-14T05:01:03.736Z,6.18
2022-08-14T05:03:33.409Z,6.28
2022-08-14T05:06:03.976Z,7.38
2022-08-14T05:08:50.340Z,6.43
2022-08-14T05:11:24.103Z,6.20
2022-08-14T05:16:42.232Z,6.63
2022-08-14T05:19:17.996Z,6.60
2022-08-14T05:22:16.453Z,6.32
2022-08-14T05:24:48.695Z,6.40
2022-08-14T05:27:23.066Z,5.80
2022-08-14T05:29:53.800Z,6.55
2022-08-14T05:32:27.502Z,6.18
2022-08-14T05:34:59.981Z,6.43
2022-08-14T05:37:29.855Z,6.28
2022-08-14T05:39:59.099Z,6.05
2022-08-14T05:42:31.838Z,5.43
2022-08-14T05:45:02.480Z,6.50
2022-08-14T05:47:34.182Z,6.28
2022-08-14T05:50:19.256Z,5.25
2022-08-14T05:52:51.698Z,6.25
2022-08-14T05:55:23.632Z,6.55
2022-08-14T05:57:53.843Z,6.10
2022-08-14T06:00:29.351Z,6.25
2022-08-14T06:03:00.530Z,5.97
2022-08-14T06:05:31.745Z,6.28
2022-08-14T06:07:59.954Z,6.22
2022-08-14T06:10:30.114Z,6.28
2022-08-14T06:13:01.825Z,6.63
2022-08-14T06:15:30.583Z,6.68
2022-08-14T06:18:00.472Z,6.57
2022-08-14T06:20:30.133Z,6.50
2022-08-14T06:22:58.086Z,5.85
2022-08-14T06:25:27.825Z,6.50
2022-08-14T06:28:00.806Z,6.60
2022-08-14T06:30:46.499Z,6.47
2022-08-14T06:33:18.069Z,6.65
2022-08-14T06:35:48.006Z,6.03
2022-08-14T06:38:19.591Z,6.60
2022-08-14T06:40:51.490Z,6.53
2022-08-14T06:43:21.210Z,6.78
2022-08-14T06:45:54.491Z,6.15
2022-08-14T06:48:24.729Z,7.05
2022-08-14T06:50:54.019Z,7.00
2022-08-14T06:53:27.766Z,6.72
2022-08-14T06:56:00.722Z,7.90
2022-08-14T06:58:30.824Z,8.88
2022-08-14T07:01:27.000Z,8.45
2022-08-14T07:04:22.677Z,8.70
2022-08-14T07:06:55.609Z,8.90
2022-08-14T07:09:43.459Z,7.95
2022-08-14T07:12:34.818Z,8.07
2022-08-14T07:15:08.037Z,9.38
2022-08-14T07:17:44.801Z,8.35
2022-08-14T07:20:12.608Z,9.15
2022-08-14T07:22:49.864Z,8.88
2022-08-14T07:25:18.010Z,8.90
2022-08-14T07:27:47.827Z,9.35
2022-08-14T07:30:34.183Z,9.38
2022-08-14T07:33:03.554Z,9.27
2022-08-14T07:35:42.891Z,10.15
2022-08-14T07:38:22.766Z,9.13
2022-08-14T07:40:52.778Z,9.60
2022-08-14T07:43:21.856Z,10.18
2022-08-14T07:45:50.986Z,9.75
2022-08-14T07:48:25.073Z,9.98
2022-08-14T07:50:59.464Z,9.27
2022-08-14T07:53:30.593Z,8.82
2022-08-14T07:56:21.409Z,9.20
2022-08-14T07:58:52.541Z,8.82
2022-08-14T08:01:20.576Z,9.23
2022-08-14T08:03:57.318Z,9.27
2022-08-14T08:06:29.483Z,9.30
2022-08-14T08:09:02.788Z,8.93
2022-08-14T08:11:37.470Z,9.80
2022-08-14T08:14:10.844Z,9.43
2022-08-14T08:16:51.207Z,9.00
2022-08-14T08:19:19.518Z,9.52
2022-08-14T08:21:47.699Z,9.05
2022-08-14T08:24:20.173Z,10.05
2022-08-14T08:26:50.619Z,9.52
2022-08-14T08:29:28.923Z,9.13
2022-08-14T08:32:01.766Z,8.48
2022-08-14T08:34:47.022Z,9.20
2022-08-14T08:37:15.298Z,9.48
2022-08-14T08:40:03.074Z,8.75
2022-08-14T08:42:38.213Z,9.00
2022-08-14T08:45:11.899Z,7.97
2022-08-14T08:47:40.956Z,9.13
2022-08-14T08:50:23.405Z,7.95
2022-08-14T08:53:02.393Z,8.82
2022-08-14T08:55:45.379Z,8.75
2022-08-14T08:58:20.327Z,8.50
2022-08-14T09:00:55.550Z,8.38
2022-08-14T09:03:27.609Z,11.00
2022-08-14T09:06:54.005Z,8.88
2022-08-14T09:08:56.342Z,8.48
2022-08-14T09:11:24.766Z,8.48
2022-08-14T09:13:54.817Z,8.25
2022-08-14T09:16:25.906Z,7.97
2022-08-14T09:18:55.190Z,8.02
2022-08-14T09:21:24.209Z,8.45
2022-08-14T09:24:28.834Z,8.13
2022-08-14T09:26:49.560Z,8.60
2022-08-14T09:29:23.292Z,7.78
2022-08-14T09:31:58.109Z,8.05
2022-08-14T09:34:58.267Z,8.13
2022-08-14T09:37:55.321Z,7.28
2022-08-14T09:40:54.748Z,8.02
2022-08-14T09:43:46.896Z,8.13
2022-08-14T09:46:21.053Z,7.03
2022-08-14T09:49:01.746Z,7.95
2022-08-14T09:51:32.656Z,7.53
2022-08-14T09:54:18.101Z,7.82
2022-08-14T09:56:57.139Z,7.57
2022-08-14T09:59:27.845Z,7.68
2022-08-14T10:01:57.394Z,7.72
2022-08-14T10:04:33.689Z,7.43
2022-08-14T10:07:05.600Z,6.78
2022-08-14T10:09:34.966Z,6.78
2022-08-14T10:12:05.068Z,6.85
2022-08-14T10:14:36.930Z,7.22
2022-08-14T10:17:07.078Z,6.85
2022-08-14T10:19:46.940Z,6.65
2022-08-14T10:23:21.874Z,6.93
2022-08-14T10:25:17.456Z,5.80
2022-08-14T10:27:50.105Z,6.78
2022-08-14T10:30:33.342Z,6.53
2022-08-14T10:33:03.421Z,5.85
2022-08-14T10:35:40.939Z,5.82
2022-08-14T10:38:29.593Z,6.18
2022-08-14T10:41:18.870Z,6.88
2022-08-14T10:44:07.408Z,6.72
2022-08-14T10:47:39.847Z,6.20
2022-08-14T10:50:00.801Z,5.53
2022-08-14T10:52:33.861Z,5.55
2022-08-14T10:55:14.519Z,5.13
2022-08-14T10:57:53.616Z,5.22
2022-08-14T11:00:30.288Z,5.00
2022-08-14T11:03:13.215Z,5.25
2022-08-14T11:05:49.452Z,5.20
2022-08-14T11:08:33.890Z,4.18
2022-08-14T11:11:05.944Z,5.07
2022-08-14T11:13:34.468Z,4.80
2022-08-14T11:16:02.909Z,4.97
2022-08-14T11:18:40.181Z,5.40
2022-08-14T11:21:10.627Z,4.93
2022-08-14T11:23:43.984Z,6.05
2022-08-14T11:26:16.532Z,6.38
2022-08-14T11:28:53.946Z,5.68
2022-08-14T11:31:24.201Z,4.60
2022-08-14T11:33:57.832Z,5.13
2022-08-14T11:37:01.975Z,4.68
2022-08-14T11:39:34.374Z,4.95
2022-08-14T11:42:57.959Z,4.43
2022-08-14T11:45:11.104Z,4.72
2022-08-14T11:47:44.135Z,4.60
2022-08-14T11:50:37.940Z,4.68
2022-08-14T11:53:10.069Z,4.65
2022-08-14T11:55:44.334Z,5.05
2022-08-14T11:58:15.748Z,4.90
2022-08-14T12:00:54.671Z,4.82
2022-08-14T12:03:27.007Z,4.68
2022-08-14T12:06:28.842Z,5.13
2022-08-14T12:09:00.206Z,5.70
2022-08-14T12:11:44.244Z,4.68
2022-08-14T12:14:29.954Z,4.85
2022-08-14T12:17:12.557Z,4.45
2022-08-14T12:19:56.589Z,4.00
2022-08-14T12:22:45.738Z,5.15
2022-08-14T12:25:24.828Z,4.18
2022-08-14T12:27:59.373Z,4.03
2022-08-14T12:30:35.943Z,3.80
2022-08-14T12:33:18.801Z,3.70
2022-08-14T12:35:49.161Z,3.60
2022-08-14T12:38:21.129Z,3.65
2022-08-14T12:40:52.094Z,3.53
2022-08-14T12:43:21.839Z,4.13
2022-08-14T12:45:52.058Z,3.63
2022-08-14T12:48:32.290Z,4.93
2022-08-14T12:51:00.638Z,3.65
2022-08-14T12:53:39.978Z,3.67
2022-08-14T12:56:21.515Z,3.30
2022-08-14T12:58:59.220Z,4.40
2022-08-14T13:01:31.255Z,3.20
2022-08-14T13:04:14.500Z,3.10
2022-08-14T13:06:45.145Z,3.60
2022-08-14T13:09:19.978Z,3.42
2022-08-14T13:11:59.173Z,3.40
2022-08-14T13:14:44.149Z,3.42
2022-08-14T13:17:15.708Z,3.30
2022-08-14T13:19:46.017Z,4.03
2022-08-14T13:22:29.077Z,3.78
2022-08-14T13:25:05.197Z,3.30
2022-08-14T13:27:39.189Z,3.45
2022-08-14T13:30:10.851Z,4.57
2022-08-14T13:32:53.451Z,3.17
2022-08-14T13:35:22.639Z,3.92
2022-08-14T13:37:52.178Z,3.45
2022-08-14T13:40:26.590Z,3.60
2022-08-14T13:42:57.010Z,3.58
2022-08-14T13:45:33.672Z,3.42
2022-08-14T13:48:27.279Z,3.40
2022-08-14T13:51:07.828Z,3.67
2022-08-14T13:54:07.020Z,3.33
2022-08-14T13:56:39.667Z,3.78
2022-08-14T13:59:08.585Z,3.35
2022-08-14T14:01:43.269Z,3.58
2022-08-14T14:04:19.810Z,3.63
2022-08-14T14:06:51.076Z,3.60
2022-08-14T14:09:32.504Z,4.05
2022-08-14T14:12:37.257Z,3.20
2022-08-14T14:15:05.217Z,3.63
2022-08-14T14:17:36.203Z,4.00
2022-08-14T14:20:15.025Z,3.97
2022-08-14T14:23:03.432Z,3.90
2022-08-14T14:25:46.108Z,3.70
2022-08-14T14:28:24.206Z,4.15
2022-08-14T14:30:57.286Z,4.15
2022-08-14T14:33:47.324Z,3.95
2022-08-14T14:36:24.947Z,3.60
2022-08-14T14:39:02.165Z,3.67
2022-08-14T14:41:43.930Z,4.00
2022-08-14T14:44:15.831Z,3.90
2022-08-14T14:46:50.459Z,3.00
2022-08-14T14:49:22.015Z,3.90
2022-08-14T14:52:23.290Z,4.18
2022-08-14T14:54:58.758Z,3.70
2022-08-14T14:57:34.763Z,3.78
2022-08-14T15:00:19.725Z,4.22
2022-08-14T15:02:51.622Z,4.50
2022-08-14T15:05:21.250Z,3.85
2022-08-14T15:07:51.094Z,3.80
2022-08-14T15:10:28.103Z,4.10
2022-08-14T15:13:03.695Z,4.10
2022-08-14T15:15:37.231Z,4.18
2022-08-14T15:18:14.741Z,4.25
2022-08-14T15:20:42.989Z,4.80
2022-08-14T15:23:15.734Z,4.15
2022-08-14T15:25:53.087Z,4.22
2022-08-14T15:28:21.827Z,4.30
2022-08-14T15:30:58.944Z,4.43
2022-08-14T15:34:01.251Z,3.92
2022-08-14T15:36:35.209Z,4.63
2022-08-14T15:39:06.201Z,4.57
2022-08-14T15:41:41.904Z,4.72
2022-08-14T15:44:25.463Z,4.80
2022-08-14T15:46:56.500Z,4.70
2022-08-14T15:49:34.602Z,4.65
2022-08-14T15:52:04.614Z,5.00
2022-08-14T15:54:33.947Z,5.13
2022-08-14T15:57:09.417Z,5.00
2022-08-14T15:59:58.463Z,5.90
2022-08-14T16:02:27.849Z,5.00
2022-08-14T16:04:56.249Z,4.72
2022-08-14T16:07:27.030Z,4.78
2022-08-14T16:10:25.354Z,4.22
2022-08-14T16:12:47.758Z,4.40
2022-08-14T16:15:16.949Z,4.18
2022-08-14T16:17:46.343Z,6.20
2022-08-14T16:20:42.030Z,3.90
2022-08-14T16:23:10.320Z,3.78
2022-08-14T16:25:43.821Z,5.43
2022-08-14T16:28:27.222Z,3.65
2022-08-14T16:30:56.589Z,3.47
2022-08-14T16:33:54.604Z,3.63
2022-08-14T16:39:12.066Z,3.30
2022-08-14T16:40:25.497Z,3.40
2022-08-14T16:41:39.767Z,3.67
2022-08-14T16:44:22.048Z,4.65
2022-08-14T16:47:03.782Z,3.47
2022-08-14T16:50:03.162Z,3.53
2022-08-14T16:52:26.182Z,3.15
2022-08-14T16:55:08.693Z,3.60
2022-08-14T16:57:58.514Z,3.47
2022-08-14T17:00:28.835Z,3.72
2022-08-14T17:03:01.449Z,3.70
2022-08-14T17:05:29.403Z,3.47
2022-08-14T17:08:23.976Z,3.53
2022-08-14T17:10:59.966Z,3.63
2022-08-14T17:13:59.667Z,3.25
2022-08-14T17:16:25.439Z,3.30
2022-08-14T17:19:00.602Z,3.20
2022-08-14T17:21:37.913Z,3.22
2022-08-14T17:24:51.583Z,3.10
2022-08-14T17:27:03.642Z,3.17
2022-08-14T17:29:34.984Z,5.00
2022-08-14T17:32:44.478Z,4.28
2022-08-14T17:35:12.039Z,4.85
2022-08-14T17:37:55.927Z,4.63
2022-08-14T17:40:30.160Z,4.22
2022-08-14T17:43:00.852Z,4.07
2022-08-14T17:45:41.179Z,9.18
2022-08-14T17:49:15.644Z,8.00
2022-08-14T17:51:23.819Z,10.88
2022-08-14T17:54:02.595Z,5.97
2022-08-14T17:56:33.498Z,3.38
2022-08-14T17:59:05.199Z,3.80
2022-08-14T18:01:38.637Z,3.50
2022-08-14T18:04:24.996Z,10.65
2022-08-14T18:07:16.313Z,5.75
2022-08-14T18:09:57.366Z,5.57
2022-08-14T18:12:36.746Z,4.68
2022-08-14T18:15:17.473Z,3.50
2022-08-14T18:17:52.599Z,3.40
2022-08-14T18:21:39.649Z,3.83
2022-08-14T18:23:13.699Z,5.07
2022-08-14T18:25:52.298Z,5.32
2022-08-14T18:28:47.945Z,4.30
2022-08-14T18:31:21.545Z,3.45
2022-08-14T18:33:59.531Z,4.55
2022-08-14T18:36:57.135Z,3.55
2022-08-14T18:39:29.617Z,4.00
2022-08-14T18:42:23.539Z,4.85
2022-08-14T18:44:58.517Z,3.88
2022-08-14T18:48:03.310Z,3.85
2022-08-14T18:50:27.040Z,6.15
2022-08-14T18:53:11.019Z,6.07
2022-08-14T18:55:53.446Z,3.78
2022-08-14T18:58:27.476Z,5.28
2022-08-14T19:01:00.707Z,7.25
2022-08-14T19:03:34.371Z,3.35
2022-08-14T19:06:08.032Z,5.28
2022-08-14T19:08:55.397Z,5.00
2022-08-14T19:11:34.154Z,4.10
2022-08-14T19:14:05.046Z,5.32
2022-08-14T19:16:37.813Z,3.90
2022-08-14T19:19:12.503Z,5.28
2022-08-14T19:21:58.187Z,4.20
2022-08-14T19:24:43.680Z,7.03
2022-08-14T19:27:24.575Z,4.97
2022-08-14T19:30:23.274Z,4.05
2022-08-14T19:32:57.251Z,4.20
2022-08-14T19:35:49.135Z,7.90
2022-08-14T19:38:55.087Z,5.32
2022-08-14T19:41:34.388Z,5.72
2022-08-14T19:44:13.017Z,6.88
2022-08-14T19:47:02.628Z,5.18
2022-08-14T19:50:30.556Z,4.78
2022-08-14T19:52:35.210Z,5.00
2022-08-14T19:55:20.047Z,3.38
2022-08-14T19:57:58.590Z,3.90
2022-08-14T20:00:30.026Z,3.63
2022-08-14T20:03:11.311Z,3.40
2022-08-14T20:05:43.118Z,3.70
2022-08-14T20:10:59.043Z,5.38
2022-08-14T20:11:20.984Z,5.93
2022-08-14T20:14:10.213Z,5.22
2022-08-14T20:16:42.545Z,3.35
2022-08-14T20:19:15.163Z,3.55
2022-08-14T20:22:36.493Z,4.07
2022-08-14T20:24:54.981Z,4.20
2022-08-14T20:27:33.080Z,3.95
2022-08-14T20:30:33.447Z,4.22
2022-08-14T20:33:11.489Z,3.40
2022-08-14T20:35:39.292Z,3.20
2022-08-14T20:38:29.826Z,6.80
2022-08-14T20:41:07.573Z,4.57
2022-08-14T20:43:59.713Z,3.22
2022-08-14T20:46:32.359Z,3.25
2022-08-14T20:49:19.161Z,3.38
2022-08-14T20:51:58.438Z,3.00
2022-08-14T20:54:36.920Z,3.92
2022-08-14T20:57:19.310Z,3.63
2022-08-14T20:59:56.583Z,3.38
2022-08-14T21:02:50.820Z,7.35
2022-08-14T21:05:33.839Z,5.18
2022-08-14T21:08:09.872Z,3.03
2022-08-14T21:10:56.824Z,3.42
2022-08-14T21:14:18.708Z,3.25
2022-08-14T21:16:33.175Z,3.45
2022-08-14T21:19:04.041Z,3.20
2022-08-14T21:21:40.699Z,3.05
2022-08-14T21:24:39.485Z,3.42
2022-08-14T21:27:12.187Z,4.82
2022-08-14T21:29:53.673Z,5.28
2022-08-14T21:32:35.099Z,3.22
2022-08-14T21:35:08.239Z,3.00
2022-08-14T21:37:45.211Z,3.20
2022-08-14T21:40:18.852Z,3.80
2022-08-14T21:43:03.624Z,3.80
2022-08-14T21:45:35.820Z,3.35
2022-08-14T21:48:09.202Z,3.28
2022-08-14T21:51:01.015Z,4.35
2022-08-14T21:53:36.647Z,3.10
2022-08-14T21:56:38.287Z,2.50
2022-08-14T21:59:17.773Z,2.47
2022-08-14T22:02:01.832Z,3.22
2022-08-14T22:04:40.409Z,3.08
2022-08-14T22:07:13.032Z,2.90
2022-08-14T22:09:55.073Z,3.13
2022-08-14T22:12:57.727Z,4.72
2022-08-14T22:15:16.338Z,3.15
2022-08-14T22:17:44.724Z,3.42
2022-08-14T22:20:20.540Z,2.40
2022-08-14T22:22:48.566Z,3.78
2022-08-14T22:25:32.886Z,5.07
2022-08-14T22:28:07.579Z,3.33
2022-08-14T22:30:38.525Z,2.97
2022-08-14T22:33:13.301Z,3.05
2022-08-14T22:35:41.401Z,2.60
2022-08-14T22:38:37.878Z,3.45
2022-08-14T22:41:27.821Z,2.75
2022-08-14T22:43:48.884Z,2.70
2022-08-14T22:46:20.482Z,2.53
2022-08-14T22:48:49.319Z,2.55
2022-08-14T22:51:20.425Z,2.72
2022-08-14T22:53:52.605Z,2.80
2022-08-14T22:56:30.111Z,4.40
2022-08-14T22:59:04.527Z,3.85
2022-08-14T23:01:56.676Z,3.97
2022-08-14T23:04:34.769Z,4.28
2022-08-14T23:07:22.057Z,4.25
2022-08-14T23:09:57.610Z,3.95
2022-08-14T23:12:29.886Z,3.55
2022-08-14T23:14:59.977Z,4.28
2022-08-14T23:17:38.940Z,3.97
2022-08-14T23:20:19.254Z,4.05
2022-08-14T23:22:52.389Z,4.10
2022-08-14T23:25:53.153Z,3.50
2022-08-14T23:28:34.445Z,3.63
2022-08-14T23:31:08.369Z,3.65
2022-08-14T23:33:45.757Z,3.60
2022-08-14T23:36:31.582Z,3.45
2022-08-14T23:39:10.528Z,5.18
2022-08-14T23:41:52.693Z,3.42
2022-08-14T23:44:24.229Z,3.65
2022-08-14T23:47:00.552Z,3.22
2022-08-14T23:49:56.624Z,3.17
2022-08-14T23:52:57.355Z,3.35
2022-08-14T23:55:11.385Z,3.13
2022-08-14T23:57:43.938Z,3.28
